Time;durP1;ratioP1;P1;durP2;ratioP2;P2;SDS_P1;SDS_P2;PMS_P1;PMS_P2;Temp;Humidity;BMP_temperature;BMP_pressure;BME280_temperature;BME280_humidity;BME280_pressure;Samples;Min_cycle;Max_cycle;Signal;HPM_P1;HPM_P2
2023/03/11 00:02:10;;;;;;;3.45;1.90;;;-0.40;99.90;;;;;;4984021;28;20082;-52
2023/03/11 00:04:36;;;;;;;6.28;2.08;;;-0.60;99.90;;;;;;4984404;28;20121;-53
2023/03/11 00:07:04;;;;;;;7.25;1.90;;;-0.50;99.90;;;;;;4982453;28;20165;-53
2023/03/11 00:09:29;;;;;;;;;;;-0.50;99.90;;;;;;4991248;28;20045;-53
2023/03/11 00:11:55;;;;;;;7.45;2.55;;;-0.50;99.90;;;;;;4987767;28;19922;-51
2023/03/11 00:14:21;;;;;;;4.10;2.30;;;-0.50;99.90;;;;;;4994078;28;20036;-52
2023/03/11 00:16:46;;;;;;;6.45;2.40;;;-0.50;99.90;;;;;;4986894;28;20342;-53
2023/03/11 00:19:12;;;;;;;5.72;2.38;;;-0.50;99.90;;;;;;4967238;28;20357;-54
2023/03/11 00:21:38;;;;;;;5.90;2.42;;;-0.40;99.90;;;;;;4985430;28;20038;-54
2023/03/11 00:24:04;;;;;;;8.27;2.60;;;-0.30;99.90;;;;;;4977617;28;20034;-53
2023/03/11 00:26:29;;;;;;;8.68;2.65;;;-0.30;99.90;;;;;;4980414;28;20416;-49
2023/03/11 00:28:55;;;;;;;9.70;2.70;;;-0.20;99.90;;;;;;5010971;28;20125;-53
2023/03/11 00:31:21;;;;;;;6.85;2.50;;;-0.20;99.90;;;;;;4966413;28;20038;-53
2023/03/11 00:33:47;;;;;;;4.63;2.30;;;-0.10;99.90;;;;;;4991840;28;20053;-49
2023/03/11 00:36:22;;;;;;;6.50;2.47;;;-0.20;99.90;;;;;;4992319;28;20038;-49
2023/03/11 00:38:48;;;;;;;6.82;2.20;;;-0.20;99.90;;;;;;4990218;28;20042;-53
2023/03/11 00:41:13;;;;;;;7.30;2.55;;;0.00;99.90;;;;;;4984174;28;20380;-50
2023/03/11 00:43:39;;;;;;;7.05;2.40;;;0.00;99.90;;;;;;4991610;28;20097;-51
2023/03/11 00:46:05;;;;;;;7.72;3.00;;;-0.10;99.90;;;;;;4992305;28;20038;-50
2023/03/11 00:48:30;;;;;;;6.65;2.33;;;-0.10;99.90;;;;;;4983321;28;20137;-51
2023/03/11 00:50:56;;;;;;;6.95;1.95;;;-0.10;99.90;;;;;;4983225;28;20276;-49
2023/03/11 00:53:22;;;;;;;6.35;2.50;;;-0.10;99.90;;;;;;4981926;28;20070;-53
2023/03/11 00:55:47;;;;;;;7.05;2.33;;;0.00;99.90;;;;;;4971707;28;20045;-48
2023/03/11 00:58:13;;;;;;;5.65;1.85;;;0.00;99.90;;;;;;4979049;28;20042;-49
2023/03/11 01:00:39;;;;;;;8.73;2.30;;;-0.20;99.90;;;;;;4980796;28;20050;-49
2023/03/11 01:03:05;;;;;;;5.85;1.90;;;-0.10;99.90;;;;;;4981172;28;20099;-51
2023/03/11 01:05:32;;;;;;;9.77;2.40;;;0.00;99.90;;;;;;4980380;28;20046;-51
2023/03/11 01:07:59;;;;;;;11.30;2.40;;;-0.20;99.90;;;;;;4980822;28;20072;-51
2023/03/11 01:10:25;;;;;;;9.98;2.30;;;-0.20;99.90;;;;;;4981576;28;20043;-49
2023/03/11 01:12:51;;;;;;;7.57;1.98;;;-0.20;99.90;;;;;;4980734;28;20126;-49
2023/03/11 01:15:28;;;;;;;3.75;1.90;;;-0.30;99.90;;;;;;4986740;28;20173;-52
2023/03/11 01:17:54;;;;;;;7.25;1.92;;;-0.30;99.90;;;;;;4980280;28;20069;-49
2023/03/11 01:20:20;;;;;;;7.90;1.92;;;-0.40;99.90;;;;;;4980193;28;20080;-50
2023/03/11 01:22:46;;;;;;;6.63;1.90;;;-0.40;99.90;;;;;;4980233;28;20045;-49
2023/03/11 01:25:14;;;;;;;5.85;1.85;;;-0.50;99.90;;;;;;4981268;28;20042;-51
2023/03/11 01:27:40;;;;;;;6.10;2.20;;;-0.40;99.90;;;;;;4990790;28;20043;-52
2023/03/11 01:30:07;;;;;;;7.05;1.60;;;-0.50;99.90;;;;;;4984584;28;20038;-49
2023/03/11 01:32:32;;;;;;;8.07;1.83;;;-0.50;99.90;;;;;;4964949;28;20476;-49
2023/03/11 01:34:58;;;;;;;9.15;2.28;;;-0.60;99.90;;;;;;4985852;28;20054;-49
2023/03/11 01:37:24;;;;;;;7.45;1.90;;;-0.60;99.90;;;;;;4987067;28;20519;-50
2023/03/11 01:39:49;;;;;;;10.25;1.98;;;-0.60;99.90;;;;;;4984481;28;20031;-51
2023/03/11 01:42:15;;;;;;;8.80;2.20;;;-0.70;99.90;;;;;;4988206;28;20048;-52
2023/03/11 01:44:42;;;;;;;7.80;2.20;;;-0.50;99.90;;;;;;4995645;28;20396;-53
2023/03/11 01:47:32;;;;;;;9.40;2.35;;;-0.50;99.90;;;;;;4973629;28;20522;-48
2023/03/11 01:49:57;;;;;;;5.35;1.52;;;-0.60;99.90;;;;;;4990774;28;20046;-50
2023/03/11 01:52:23;;;;;;;5.03;2.13;;;-0.50;99.90;;;;;;4990870;28;20046;-48
2023/03/11 01:54:49;;;;;;;5.78;1.92;;;-0.50;99.90;;;;;;4998269;28;20067;-50
2023/03/11 01:57:15;;;;;;;6.05;2.05;;;-0.50;99.90;;;;;;4983106;28;20030;-51
2023/03/11 01:59:47;;;;;;;7.85;2.00;;;-0.50;99.90;;;;;;4982799;28;20038;-52
2023/03/11 02:02:25;;;;;;;9.00;1.83;;;-0.60;99.90;;;;;;4978312;28;20054;-53
2023/03/11 02:04:52;;;;;;;7.70;1.95;;;-0.50;99.90;;;;;;4999876;28;20121;-48
2023/03/11 02:07:18;;;;;;;6.03;1.63;;;-0.50;99.90;;;;;;5004141;28;20515;-48
2023/03/11 02:09:43;;;;;;;5.63;1.38;;;-0.60;99.90;;;;;;4984902;28;20039;-48
2023/03/11 02:12:11;;;;;;;7.07;1.80;;;-0.60;99.90;;;;;;4980069;28;20134;-48
2023/03/11 02:14:41;;;;;;;8.38;1.80;;;-0.70;99.90;;;;;;4978357;28;20048;-51
2023/03/11 02:17:08;;;;;;;3.10;1.52;;;-0.60;99.90;;;;;;4979179;28;20035;-49
2023/03/11 02:19:57;;;;;;;5.78;1.90;;;-0.70;99.90;;;;;;4978791;28;20099;-49
2023/03/11 02:22:23;;;;;;;3.40;1.50;;;-0.50;99.90;;;;;;4978930;28;20473;-49
2023/03/11 02:24:56;;;;;;;4.60;1.65;;;-0.50;99.90;;;;;;4979365;28;20046;-49
2023/03/11 02:27:25;;;;;;;4.40;1.65;;;-0.60;99.90;;;;;;4978771;28;20045;-48
2023/03/11 02:29:52;;;;;;;9.13;1.50;;;-0.60;99.90;;;;;;4977793;28;20053;-50
2023/03/11 02:32:19;;;;;;;4.28;1.45;;;-0.60;99.90;;;;;;4979019;28;20049;-50
2023/03/11 02:34:44;;;;;;;7.43;1.40;;;-0.50;99.90;;;;;;4980680;28;20507;-48
2023/03/11 02:37:12;;;;;;;5.32;1.38;;;-0.50;99.90;;;;;;4980292;28;20038;-49
2023/03/11 02:39:41;;;;;;;4.22;1.52;;;-0.50;99.90;;;;;;4980889;28;20050;-48
2023/03/11 02:42:13;;;;;;;5.05;1.60;;;-0.50;99.90;;;;;;4979375;28;20047;-49
2023/03/11 02:44:42;;;;;;;6.05;1.58;;;-0.50;99.90;;;;;;4983216;28;20078;-52
2023/03/11 02:47:08;;;;;;;5.82;1.65;;;-0.50;99.90;;;;;;4959266;28;20049;-49
2023/03/11 02:49:35;;;;;;;5.05;1.73;;;-0.50;99.90;;;;;;4979154;28;20034;-53
2023/03/11 02:52:01;;;;;;;5.70;1.70;;;-0.50;99.90;;;;;;4978741;28;20054;-49
2023/03/11 02:54:27;;;;;;;3.78;1.52;;;-0.50;99.90;;;;;;4981216;28;20084;-51
2023/03/11 02:56:52;;;;;;;9.43;1.80;;;-0.60;99.90;;;;;;4981742;28;20037;-50
2023/03/11 02:59:18;;;;;;;9.70;1.70;;;-0.50;99.90;;;;;;4980858;28;20034;-49
2023/03/11 03:01:44;;;;;;;7.18;1.63;;;-0.50;99.90;;;;;;4982175;28;20043;-50
2023/03/11 03:04:09;;;;;;;5.78;1.70;;;-0.50;99.90;;;;;;4978498;28;20703;-51
2023/03/11 03:06:35;;;;;;;5.93;1.80;;;-0.50;99.90;;;;;;4987598;28;20523;-48
2023/03/11 03:09:00;;;;;;;5.38;1.45;;;-0.50;99.90;;;;;;4977155;28;20463;-49
2023/03/11 03:11:26;;;;;;;5.72;1.70;;;-0.50;99.90;;;;;;4983854;28;20042;-48
2023/03/11 03:13:52;;;;;;;4.38;1.63;;;-0.50;99.90;;;;;;4982664;28;20130;-48
2023/03/11 03:16:17;;;;;;;5.97;1.80;;;-0.50;99.90;;;;;;4981923;28;20069;-48
2023/03/11 03:18:44;;;;;;;10.98;1.90;;;-0.50;99.90;;;;;;4981142;28;20034;-48
2023/03/11 03:21:10;;;;;;;4.32;1.50;;;-0.60;99.90;;;;;;4982956;28;20506;-51
2023/03/11 03:23:36;;;;;;;4.97;1.58;;;-0.60;99.90;;;;;;4981736;28;20042;-48
2023/03/11 03:26:03;;;;;;;4.25;1.40;;;-0.60;99.90;;;;;;4967645;28;20050;-48
2023/03/11 03:28:29;;;;;;;7.45;1.48;;;-0.70;99.90;;;;;;4982208;28;20050;-47
2023/03/11 03:30:55;;;;;;;5.65;1.55;;;-0.80;99.90;;;;;;4981353;28;20047;-52
2023/03/11 03:33:20;;;;;;;2.75;1.60;;;-1.00;99.90;;;;;;4967618;28;20492;-48
2023/03/11 03:35:46;;;;;;;5.68;1.42;;;-1.00;99.90;;;;;;4963452;28;21904;-48
2023/03/11 03:38:12;;;;;;;5.07;1.20;;;-1.10;99.90;;;;;;4978071;28;20111;-48
2023/03/11 03:40:38;;;;;;;5.05;1.52;;;-1.10;99.90;;;;;;4980164;28;20042;-51
2023/03/11 03:43:04;;;;;;;3.58;1.23;;;-1.10;99.90;;;;;;4988704;28;20388;-49
2023/03/11 03:45:30;;;;;;;4.18;1.20;;;-1.20;99.90;;;;;;4984941;28;20045;-49
2023/03/11 03:47:55;;;;;;;3.00;1.27;;;-1.30;99.90;;;;;;4966007;28;20046;-50
2023/03/11 03:50:22;;;;;;;8.85;1.88;;;-1.30;99.90;;;;;;4986085;28;20398;-50
2023/03/11 03:52:47;;;;;;;6.75;1.50;;;-1.30;99.90;;;;;;4984057;28;20038;-48
2023/03/11 03:55:14;;;;;;;5.82;1.30;;;-1.40;99.90;;;;;;4983548;28;20043;-48
2023/03/11 03:57:39;;;;;;;6.43;1.40;;;-1.40;99.90;;;;;;4983719;28;20709;-52
2023/03/11 04:00:09;;;;;;;8.30;1.80;;;-1.40;99.90;;;;;;4985126;28;20068;-49
2023/03/11 04:02:34;;;;;;;5.38;1.80;;;-1.30;99.90;;;;;;4983433;28;20047;-49
2023/03/11 04:05:00;;;;;;;4.55;1.52;;;-1.30;99.90;;;;;;4985681;28;20050;-47
2023/03/11 04:07:26;;;;;;;6.65;1.70;;;-1.40;99.90;;;;;;4984104;28;20039;-51
2023/03/11 04:09:51;;;;;;;6.38;1.40;;;-1.30;99.90;;;;;;4982726;28;20155;-49
2023/03/11 04:12:17;;;;;;;4.63;1.30;;;-1.40;99.90;;;;;;4979942;28;20069;-49
2023/03/11 04:14:43;;;;;;;9.40;1.70;;;-1.40;99.90;;;;;;4982935;28;20042;-48
2023/03/11 04:17:13;;;;;;;7.38;1.42;;;-1.50;99.90;;;;;;4984407;28;20433;-49
2023/03/11 04:19:39;;;;;;;7.82;1.92;;;-1.60;99.90;;;;;;4979459;28;20045;-48
2023/03/11 04:22:05;;;;;;;5.13;1.63;;;-1.50;99.90;;;;;;4982981;28;20629;-47
2023/03/11 04:24:30;;;;;;;6.57;1.75;;;-1.70;99.90;;;;;;4982935;28;20046;-48
2023/03/11 04:26:56;;;;;;;5.45;1.88;;;-1.70;99.90;;;;;;4987519;28;20053;-53
2023/03/11 04:29:22;;;;;;;3.05;1.67;;;-1.70;99.90;;;;;;4983302;28;20053;-48
2023/03/11 04:31:47;;;;;;;6.72;1.80;;;-1.80;99.90;;;;;;4985621;28;20037;-49
2023/03/11 04:34:13;;;;;;;6.65;1.48;;;-1.90;99.90;;;;;;4985417;28;20052;-50
2023/03/11 04:36:38;;;;;;;6.03;1.50;;;-1.80;99.90;;;;;;4983594;28;20039;-48
2023/03/11 04:39:04;;;;;;;5.88;1.50;;;-2.00;99.90;;;;;;4961441;28;20042;-50
2023/03/11 04:41:30;;;;;;;6.68;1.67;;;-2.00;99.90;;;;;;4978894;28;20038;-49
2023/03/11 04:43:57;;;;;;;4.22;1.50;;;-1.90;99.90;;;;;;4977261;28;20046;-49
2023/03/11 04:46:23;;;;;;;6.32;1.63;;;-2.10;99.90;;;;;;4975836;28;20038;-49
2023/03/11 04:48:48;;;;;;;4.32;1.35;;;-2.00;99.90;;;;;;4975442;28;20826;-51
2023/03/11 04:51:14;;;;;;;3.75;1.50;;;-2.10;99.90;;;;;;4980493;28;20546;-48
2023/03/11 04:53:39;;;;;;;5.53;1.67;;;-2.10;99.90;;;;;;4984172;28;20038;-52
2023/03/11 04:56:05;;;;;;;7.30;1.80;;;-2.10;99.90;;;;;;4981958;28;20464;-51
2023/03/11 04:58:31;;;;;;;4.85;1.70;;;-2.20;99.90;;;;;;4982326;28;20497;-53
2023/03/11 05:00:57;;;;;;;4.75;1.60;;;-2.10;99.90;;;;;;4970329;28;20055;-48
2023/03/11 05:03:22;;;;;;;8.50;1.70;;;-2.20;99.90;;;;;;4984360;28;20061;-52
2023/03/11 05:05:48;;;;;;;5.55;1.40;;;-2.20;99.90;;;;;;4980366;28;20061;-50
2023/03/11 05:08:13;;;;;;;5.05;1.60;;;-2.30;99.90;;;;;;4969087;28;20400;-49
2023/03/11 05:10:41;;;;;;;7.25;1.65;;;-2.30;99.90;;;;;;4966211;28;20042;-49
2023/03/11 05:13:07;;;;;;;3.13;1.38;;;-2.30;99.90;;;;;;4986101;28;20046;-50
2023/03/11 05:15:33;;;;;;;2.38;1.42;;;-2.30;99.90;;;;;;4982168;28;20049;-48
2023/03/11 05:17:58;;;;;;;6.38;1.73;;;-2.40;99.90;;;;;;4959588;28;20092;-49
2023/03/11 05:20:24;;;;;;;3.67;1.48;;;-2.40;99.90;;;;;;4974598;28;20479;-48
2023/03/11 05:22:50;;;;;;;4.50;1.40;;;-2.40;99.90;;;;;;4977091;28;20050;-50
2023/03/11 05:25:15;;;;;;;4.70;1.42;;;-2.40;99.90;;;;;;4977472;28;20707;-49
2023/03/11 05:27:41;;;;;;;5.45;1.75;;;-2.50;99.90;;;;;;4987899;28;20396;-49
2023/03/11 05:30:08;;;;;;;5.75;1.42;;;-2.50;99.90;;;;;;4985160;28;20408;-52
2023/03/11 05:32:33;;;;;;;4.20;1.80;;;-2.50;99.90;;;;;;4966705;28;20038;-50
2023/03/11 05:34:59;;;;;;;6.15;1.55;;;-2.40;99.90;;;;;;4966126;28;20084;-49
2023/03/11 05:37:26;;;;;;;8.07;1.80;;;-2.50;99.90;;;;;;4985126;28;20404;-52
2023/03/11 05:39:51;;;;;;;3.92;1.42;;;-2.50;99.90;;;;;;4987917;28;20049;-47
2023/03/11 05:42:17;;;;;;;5.10;1.33;;;-2.50;99.90;;;;;;4984043;28;20034;-49
2023/03/11 05:44:43;;;;;;;6.43;2.00;;;-2.50;99.90;;;;;;4984160;28;20046;-51
2023/03/11 05:47:09;;;;;;;5.53;1.83;;;-2.50;99.90;;;;;;4985185;28;20062;-49
2023/03/11 05:49:34;;;;;;;5.72;1.70;;;-2.50;99.90;;;;;;4987415;28;20047;-48
2023/03/11 05:52:00;;;;;;;3.92;1.80;;;-2.50;99.90;;;;;;4990127;28;20179;-48
2023/03/11 05:54:25;;;;;;;4.35;1.73;;;-2.50;99.90;;;;;;4982940;28;20481;-51
2023/03/11 05:56:51;;;;;;;8.45;1.67;;;-2.50;99.90;;;;;;4982062;28;20437;-51
2023/03/11 05:59:17;;;;;;;3.97;1.27;;;-2.60;99.90;;;;;;4982758;28;20034;-48
2023/03/11 06:01:43;;;;;;;6.28;1.50;;;-2.50;99.90;;;;;;4979496;28;20093;-49
2023/03/11 06:04:09;;;;;;;5.78;1.65;;;-2.50;99.90;;;;;;4982749;28;20050;-49
2023/03/11 06:06:35;;;;;;;3.95;1.60;;;-2.50;99.90;;;;;;4978034;28;20041;-51
2023/03/11 06:09:02;;;;;;;6.93;1.50;;;-2.50;99.90;;;;;;4979335;28;20042;-50
2023/03/11 06:11:28;;;;;;;2.88;1.63;;;-2.50;99.90;;;;;;4977152;28;20050;-49
2023/03/11 06:13:56;;;;;;;4.65;1.25;;;-2.60;99.90;;;;;;4978642;28;20099;-49
2023/03/11 06:16:23;;;;;;;6.88;1.95;;;-2.60;99.90;;;;;;4977958;28;20040;-52
2023/03/11 06:18:50;;;;;;;6.90;1.77;;;-2.60;99.90;;;;;;4979220;28;20046;-51
2023/03/11 06:21:21;;;;;;;4.50;1.40;;;-2.50;99.90;;;;;;4980661;28;20440;-52
2023/03/11 06:23:47;;;;;;;4.97;1.50;;;-2.50;99.90;;;;;;4978963;28;20049;-48
2023/03/11 06:26:15;;;;;;;6.70;1.50;;;-2.50;99.90;;;;;;4963021;28;20047;-51
2023/03/11 06:28:42;;;;;;;7.47;1.75;;;-2.50;99.90;;;;;;4980142;28;20081;-50
2023/03/11 06:31:10;;;;;;;6.15;1.42;;;-2.50;99.90;;;;;;4983075;28;20053;-53
2023/03/11 06:33:35;;;;;;;6.28;2.15;;;-2.50;99.90;;;;;;4966542;28;20050;-48
2023/03/11 06:36:02;;;;;;;4.07;1.60;;;-2.40;99.90;;;;;;4982735;28;20374;-50
2023/03/11 06:38:28;;;;;;;3.88;1.40;;;-2.40;99.90;;;;;;4967969;28;20042;-53
2023/03/11 06:40:58;;;;;;;4.18;1.30;;;-2.30;99.90;;;;;;4984999;28;20042;-48
2023/03/11 06:43:23;;;;;;;6.88;2.05;;;-2.30;99.90;;;;;;4984478;28;20050;-53
2023/03/11 06:45:49;;;;;;;3.35;1.75;;;-2.30;99.90;;;;;;4981772;28;20050;-49
2023/03/11 06:48:14;;;;;;;5.50;1.80;;;-2.20;99.90;;;;;;4986777;28;20148;-48
2023/03/11 06:50:40;;;;;;;6.00;1.90;;;-2.20;99.90;;;;;;4980987;28;20046;-50
2023/03/11 06:53:06;;;;;;;6.43;1.75;;;-2.10;99.90;;;;;;4985739;28;20046;-49
2023/03/11 06:55:33;;;;;;;7.47;1.80;;;-1.90;99.90;;;;;;4980726;28;20053;-54
2023/03/11 06:57:59;;;;;;;6.03;1.98;;;-1.70;99.90;;;;;;4985590;28;20042;-53
2023/03/11 07:00:24;;;;;;;3.22;1.50;;;-1.50;99.90;;;;;;4983632;28;20080;-50
2023/03/11 07:02:50;;;;;;;3.05;1.85;;;-0.60;99.90;;;;;;4963921;28;20489;-48
2023/03/11 07:05:16;;;;;;;3.95;1.67;;;0.20;99.90;;;;;;4985215;28;20539;-50
2023/03/11 07:07:42;;;;;;;4.38;1.60;;;0.90;99.90;;;;;;4982308;28;20050;-52
2023/03/11 07:10:08;;;;;;;4.00;1.70;;;1.30;99.90;;;;;;4983356;28;20035;-49
2023/03/11 07:12:34;;;;;;;3.40;1.50;;;1.10;99.90;;;;;;4981230;28;20209;-52
2023/03/11 07:15:00;;;;;;;3.80;1.55;;;0.90;99.90;;;;;;4981620;28;20160;-53
2023/03/11 07:17:26;;;;;;;4.55;1.63;;;0.70;99.90;;;;;;4980070;28;20038;-54
2023/03/11 07:19:52;;;;;;;4.93;1.55;;;0.60;99.90;;;;;;4979461;28;20053;-54
2023/03/11 07:22:18;;;;;;;5.65;1.50;;;0.50;99.90;;;;;;4985938;28;20102;-50
2023/03/11 07:24:47;;;;;;;7.32;1.50;;;0.40;99.90;;;;;;4984364;28;20043;-50
2023/03/11 07:27:14;;;;;;;5.72;1.60;;;0.30;99.90;;;;;;4981630;28;20121;-52
2023/03/11 07:29:40;;;;;;;4.88;1.35;;;0.30;99.90;;;;;;4982892;28;20054;-50
2023/03/11 07:32:07;;;;;;;6.97;1.50;;;0.30;99.90;;;;;;4983641;28;20065;-51
2023/03/11 07:34:33;;;;;;;4.13;1.40;;;0.30;99.90;;;;;;4984429;28;20049;-50
2023/03/11 07:36:58;;;;;;;5.55;1.67;;;0.40;99.90;;;;;;4980811;28;20051;-49
2023/03/11 07:39:24;;;;;;;9.02;1.70;;;0.40;99.90;;;;;;4987549;28;20061;-51
2023/03/11 07:41:50;;;;;;;4.72;1.60;;;0.40;99.90;;;;;;4982182;28;20034;-53
2023/03/11 07:44:16;;;;;;;3.25;1.80;;;0.40;99.90;;;;;;4982765;28;20037;-48
2023/03/11 07:46:42;;;;;;;3.47;1.40;;;0.40;99.90;;;;;;4984020;28;20046;-51
2023/03/11 07:49:08;;;;;;;5.55;1.48;;;0.50;99.90;;;;;;4976853;28;20377;-49
2023/03/11 07:51:35;;;;;;;2.30;1.40;;;0.50;99.90;;;;;;4978434;28;20068;-48
2023/03/11 07:54:02;;;;;;;2.10;1.13;;;0.60;99.90;;;;;;4966183;28;20152;-52
2023/03/11 07:56:31;;;;;;;2.83;1.33;;;0.60;99.90;;;;;;4980219;28;20492;-48
2023/03/11 07:58:59;;;;;;;6.05;1.52;;;0.70;99.90;;;;;;4969948;28;20046;-49
2023/03/11 08:01:29;;;;;;;3.50;1.45;;;0.70;99.90;;;;;;4979476;28;20062;-51
2023/03/11 08:03:57;;;;;;;7.18;1.20;;;0.80;99.90;;;;;;4974637;28;20050;-48
2023/03/11 08:06:30;;;;;;;4.88;1.38;;;0.90;99.90;;;;;;4984232;28;20380;-51
2023/03/11 08:08:56;;;;;;;3.25;1.25;;;1.00;99.90;;;;;;4984552;28;20038;-48
2023/03/11 08:11:22;;;;;;;5.68;1.40;;;1.00;99.90;;;;;;4990350;28;20046;-48
2023/03/11 08:13:49;;;;;;;5.55;1.50;;;1.00;99.90;;;;;;4989366;28;20045;-50
2023/03/11 08:16:18;;;;;;;5.30;1.23;;;1.10;99.90;;;;;;4990698;28;20046;-49
2023/03/11 08:18:45;;;;;;;5.03;1.65;;;1.20;99.90;;;;;;4990396;28;20463;-49
2023/03/11 08:21:12;;;;;;;4.53;1.27;;;1.30;99.90;;;;;;4990383;28;20039;-48
2023/03/11 08:23:38;;;;;;;5.25;1.30;;;1.30;99.90;;;;;;4990549;28;20038;-49
2023/03/11 08:26:05;;;;;;;5.75;1.65;;;1.40;99.90;;;;;;4991872;28;20057;-48
2023/03/11 08:28:31;;;;;;;3.65;1.67;;;1.50;99.90;;;;;;4991145;28;20049;-48
2023/03/11 08:30:57;;;;;;;4.53;1.45;;;1.50;99.90;;;;;;4980614;28;20039;-49
2023/03/11 08:33:23;;;;;;;7.35;1.67;;;1.60;99.90;;;;;;5010932;28;20046;-51
2023/03/11 08:35:48;;;;;;;5.25;1.70;;;1.70;99.90;;;;;;5005751;28;20091;-48
2023/03/11 08:38:14;;;;;;;4.38;1.27;;;1.70;99.90;;;;;;4994736;28;20579;-51
2023/03/11 08:40:40;;;;;;;4.57;1.60;;;1.80;99.90;;;;;;4995740;28;20039;-53
2023/03/11 08:43:06;;;;;;;5.50;1.48;;;1.90;99.90;;;;;;4995372;28;20133;-53
2023/03/11 08:45:32;;;;;;;4.18;1.58;;;1.90;99.90;;;;;;4990992;28;20118;-52
2023/03/11 08:47:59;;;;;;;4.05;1.42;;;1.90;99.90;;;;;;4985607;28;20057;-52
2023/03/11 08:50:25;;;;;;;5.80;1.55;;;;;;;;;;4990747;28;20480;-54
2023/03/11 08:52:50;;;;;;;7.90;1.85;;;2.10;99.90;;;;;;4989249;28;20042;-54
2023/03/11 08:55:23;;;;;;;6.15;1.40;;;2.20;99.90;;;;;;4991906;28;20054;-54
2023/03/11 08:57:49;;;;;;;6.60;1.48;;;2.20;99.90;;;;;;4987258;28;20046;-54
2023/03/11 09:00:15;;;;;;;3.58;1.50;;;2.30;99.90;;;;;;4990770;28;20050;-54
2023/03/11 09:02:42;;;;;;;7.97;1.92;;;2.40;99.90;;;;;;4990108;28;20504;-50
2023/03/11 09:05:08;;;;;;;8.50;1.98;;;2.50;99.90;;;;;;4991678;28;20042;-51
2023/03/11 09:07:34;;;;;;;3.67;1.65;;;2.60;99.90;;;;;;4973619;28;20050;-54
2023/03/11 09:09:59;;;;;;;5.32;1.80;;;2.70;99.90;;;;;;4993188;28;20050;-53
2023/03/11 09:12:25;;;;;;;3.50;2.03;;;2.60;99.90;;;;;;4993567;28;20050;-52
2023/03/11 09:14:51;;;;;;;4.35;1.63;;;2.70;99.90;;;;;;4990613;28;20072;-54
2023/03/11 09:17:16;;;;;;;7.28;1.77;;;2.70;99.90;;;;;;4990682;28;20456;-54
2023/03/11 09:19:42;;;;;;;5.05;1.73;;;2.80;99.90;;;;;;4988145;28;20072;-55
2023/03/11 09:22:07;;;;;;;3.08;1.52;;;2.80;99.90;;;;;;4988919;28;20095;-53
2023/03/11 09:24:34;;;;;;;4.03;1.67;;;2.80;99.90;;;;;;4990891;28;20078;-53
2023/03/11 09:27:00;;;;;;;4.05;1.50;;;2.90;99.90;;;;;;4988521;28;20038;-54
2023/03/11 09:29:26;;;;;;;9.52;1.88;;;3.00;99.90;;;;;;4991439;28;20046;-54
2023/03/11 09:31:52;;;;;;;4.75;1.60;;;3.00;99.90;;;;;;4972883;28;20155;-54
2023/03/11 09:34:17;;;;;;;2.58;1.48;;;3.10;99.90;;;;;;4982973;28;20122;-50
2023/03/11 09:36:43;;;;;;;6.18;1.65;;;3.20;99.90;;;;;;4989406;28;20334;-53
2023/03/11 09:39:10;;;;;;;3.97;1.58;;;3.10;99.90;;;;;;4991167;28;20081;-54
2023/03/11 09:41:56;;;;;;;5.93;1.92;;;3.20;99.90;;;;;;4988676;28;20069;-55
2023/03/11 09:44:49;;;;;;;5.32;1.70;;;3.10;99.90;;;;;;4990446;28;20509;-53
2023/03/11 09:47:37;;;;;;;5.43;1.48;;;3.20;99.90;;;;;;4990984;28;20049;-52
2023/03/11 09:50:15;;;;;;;2.60;1.40;;;3.30;99.90;;;;;;4992501;28;20050;-54
2023/03/11 09:53:03;;;;;;;3.35;1.50;;;3.20;99.90;;;;;;4954376;28;20088;-55
2023/03/11 09:55:31;;;;;;;5.18;1.75;;;3.20;99.90;;;;;;4971503;28;20574;-54
2023/03/11 09:58:00;;;;;;;8.50;1.70;;;3.30;99.90;;;;;;4971259;28;20054;-54
2023/03/11 10:00:27;;;;;;;3.97;1.70;;;3.30;99.90;;;;;;4981638;28;20095;-51
2023/03/11 10:02:53;;;;;;;7.80;2.00;;;3.30;99.90;;;;;;4990320;28;20055;-51
2023/03/11 10:05:26;;;;;;;4.57;1.80;;;3.40;99.90;;;;;;4990620;28;20050;-51
2023/03/11 10:08:02;;;;;;;4.38;1.55;;;3.50;99.90;;;;;;4991158;28;20046;-50
2023/03/11 10:10:33;;;;;;;3.15;1.60;;;3.50;99.90;;;;;;4988041;28;20051;-54
2023/03/11 10:13:22;;;;;;;5.07;1.70;;;3.50;99.90;;;;;;4988262;28;20472;-51
2023/03/11 10:16:03;;;;;;;5.72;1.52;;;3.50;99.90;;;;;;4990528;28;20102;-52
2023/03/11 10:18:51;;;;;;;8.52;2.17;;;3.50;99.90;;;;;;4987956;28;20046;-51
2023/03/11 10:21:27;;;;;;;5.00;1.85;;;3.60;99.90;;;;;;4987264;28;20042;-54
2023/03/11 10:24:26;;;;;;;5.68;1.88;;;3.60;99.90;;;;;;4988472;28;20462;-52
2023/03/11 10:26:57;;;;;;;4.63;1.75;;;3.80;99.90;;;;;;4977925;28;20454;-56
2023/03/11 10:29:30;;;;;;;6.47;1.60;;;3.80;99.90;;;;;;4989629;28;20119;-53
2023/03/11 10:32:13;;;;;;;7.85;1.80;;;3.90;99.90;;;;;;4988763;28;20481;-53
2023/03/11 10:34:53;;;;;;;5.18;1.75;;;4.00;99.90;;;;;;4988780;28;20054;-51
2023/03/11 10:37:25;;;;;;;5.45;1.77;;;4.00;99.90;;;;;;4986617;28;20051;-54
2023/03/11 10:39:51;;;;;;;6.30;1.70;;;4.00;99.90;;;;;;4989614;28;20045;-55
2023/03/11 10:42:25;;;;;;;4.85;1.70;;;4.10;99.90;;;;;;4983481;28;20074;-51
2023/03/11 10:44:51;;;;;;;5.75;1.65;;;4.10;99.90;;;;;;4984630;28;20043;-53
2023/03/11 10:47:22;;;;;;;7.50;2.03;;;4.10;99.90;;;;;;4988244;28;20050;-54
2023/03/11 10:49:48;;;;;;;5.50;1.63;;;4.20;99.90;;;;;;4990348;28;20095;-52
2023/03/11 10:52:14;;;;;;;6.05;2.10;;;4.30;99.90;;;;;;4986731;28;20073;-52
2023/03/11 10:54:45;;;;;;;7.97;1.80;;;4.40;99.90;;;;;;4989074;28;20070;-55
2023/03/11 10:57:31;;;;;;;5.97;1.70;;;4.30;99.90;;;;;;4986750;28;20099;-56
2023/03/11 10:59:59;;;;;;;3.33;1.50;;;4.40;99.90;;;;;;4991558;28;20043;-52
2023/03/11 11:02:36;;;;;;;6.78;1.98;;;4.50;99.90;;;;;;4984942;28;20145;-54
2023/03/11 11:05:17;;;;;;;4.13;1.43;;;4.50;99.90;;;;;;4990148;28;20052;-52
2023/03/11 11:07:48;;;;;;;5.22;1.50;;;4.60;99.90;;;;;;4988474;28;20046;-53
2023/03/11 11:10:23;;;;;;;7.32;2.17;;;4.60;99.90;;;;;;4988299;28;20125;-55
2023/03/11 11:12:59;;;;;;;4.97;1.30;;;4.70;99.90;;;;;;4980758;28;20057;-51
2023/03/11 11:15:39;;;;;;;6.50;1.10;;;4.80;99.90;;;;;;4990064;28;20103;-51
2023/03/11 11:18:26;;;;;;;5.60;1.25;;;4.90;99.90;;;;;;4980184;28;20087;-52
2023/03/11 11:21:02;;;;;;;5.97;1.98;;;5.10;99.90;;;;;;4990425;28;20123;-52
2023/03/11 11:23:41;;;;;;;2.42;1.15;;;5.30;99.90;;;;;;4991772;28;20322;-54
2023/03/11 11:26:22;;;;;;;4.55;1.60;;;5.30;99.90;;;;;;4990844;28;20047;-54
2023/03/11 11:29:04;;;;;;;7.20;1.30;;;5.40;99.90;;;;;;4968094;28;20524;-53
2023/03/11 11:31:30;;;;;;;4.53;1.33;;;5.30;99.90;;;;;;4991491;28;20053;-56
2023/03/11 11:33:56;;;;;;;5.03;1.33;;;5.30;99.90;;;;;;4992846;28;20446;-57
2023/03/11 11:36:27;;;;;;;7.38;1.70;;;5.40;99.90;;;;;;4993166;28;20048;-56
2023/03/11 11:38:53;;;;;;;6.93;1.40;;;5.30;99.90;;;;;;4991482;28;20065;-57
2023/03/11 11:41:22;;;;;;;5.47;1.30;;;5.40;99.90;;;;;;4988255;28;20125;-55
2023/03/11 11:43:58;;;;;;;3.50;1.23;;;5.50;99.90;;;;;;4984209;28;20042;-57
2023/03/11 11:46:35;;;;;;;3.33;1.20;;;5.50;99.90;;;;;;4990967;28;20053;-53
2023/03/11 11:49:10;;;;;;;5.60;1.08;;;5.60;99.90;;;;;;4991642;28;20066;-57
2023/03/11 11:51:49;;;;;;;4.88;1.10;;;5.50;99.90;;;;;;4989254;28;20570;-55
2023/03/11 11:54:23;;;;;;;6.63;1.05;;;5.60;99.90;;;;;;5012236;28;20529;-54
2023/03/11 11:56:49;;;;;;;3.65;1.52;;;5.70;99.90;;;;;;4977157;28;20124;-56
2023/03/11 11:59:20;;;;;;;6.70;1.13;;;5.90;99.90;;;;;;4992666;28;20050;-55
2023/03/11 12:01:55;;;;;;;2.80;0.88;;;5.90;99.90;;;;;;4992230;28;20058;-55
2023/03/11 12:04:49;;;;;;;4.30;1.17;;;6.00;99.90;;;;;;4992397;28;20038;-56
2023/03/11 12:07:43;;;;;;;4.32;1.30;;;6.10;99.90;;;;;;4974023;28;20130;-54
2023/03/11 12:10:16;;;;;;;3.88;1.25;;;6.20;99.90;;;;;;4969877;28;20050;-55
2023/03/11 12:13:04;;;;;;;3.80;1.50;;;6.30;99.90;;;;;;4992429;28;20050;-57
2023/03/11 12:15:47;;;;;;;2.88;1.20;;;6.30;99.90;;;;;;4994539;28;20043;-57
2023/03/11 12:18:48;;;;;;;4.20;1.00;;;6.40;99.90;;;;;;4994070;28;20049;-56
2023/03/11 12:21:53;;;;;;;3.42;1.52;;;6.50;99.90;;;;;;4996320;28;20458;-57
2023/03/11 12:24:29;;;;;;;5.07;1.40;;;6.50;99.90;;;;;;4958331;28;20050;-57
2023/03/11 12:27:02;;;;;;;6.45;1.33;;;6.50;99.90;;;;;;4989613;28;20071;-56
2023/03/11 12:29:35;;;;;;;4.07;1.10;;;6.60;99.90;;;;;;4990088;28;20141;-57
2023/03/11 12:32:02;;;;;;;2.53;0.90;;;6.70;99.90;;;;;;4991927;28;20144;-52
2023/03/11 12:34:30;;;;;;;5.07;1.25;;;6.70;99.90;;;;;;4990006;28;20449;-56
2023/03/11 12:37:02;;;;;;;5.22;1.10;;;6.70;99.90;;;;;;4991799;28;20128;-53
2023/03/11 12:39:31;;;;;;;4.88;1.10;;;6.50;99.90;;;;;;4990599;28;20046;-56
2023/03/11 12:42:16;;;;;;;3.78;1.58;;;6.60;99.90;;;;;;4979460;28;20070;-56
2023/03/11 12:44:41;;;;;;;3.05;1.30;;;6.70;99.90;;;;;;4989281;28;20107;-55
2023/03/11 12:47:07;;;;;;;3.30;1.13;;;6.80;99.90;;;;;;4988203;28;20038;-54
2023/03/11 12:49:39;;;;;;;5.05;1.63;;;7.00;99.90;;;;;;4988845;28;20046;-54
2023/03/11 12:52:25;;;;;;;3.95;1.00;;;7.00;99.90;;;;;;4976958;28;20042;-57
2023/03/11 12:54:54;;;;;;;3.92;1.20;;;7.10;99.90;;;;;;4990810;28;20046;-55
2023/03/11 12:57:19;;;;;;;7.90;1.00;;;7.10;99.90;;;;;;4993434;28;20073;-56
2023/03/11 12:59:51;;;;;;;4.03;0.85;;;7.10;99.90;;;;;;5000993;28;20463;-56
2023/03/11 13:02:38;;;;;;;4.60;1.00;;;7.00;99.90;;;;;;4972896;28;20093;-53